Time;durP1;ratioP1;P1;durP2;ratioP2;P2;SDS_P1;SDS_P2;PMS_P1;PMS_P2;Temp;Humidity;BMP_temperature;BMP_pressure;BME280_temperature;BME280_humidity;BME280_pressure;Samples;Min_cycle;Max_cycle;Signal;HPM_P1;HPM_P2
2023/01/16 00:01:30;;;;;;;16.92;12.55;;;;;;;;;;10208136;28;20062;-69
2023/01/16 00:06:28;;;;;;;15.75;12.20;;;;;;;;;;10208504;28;20463;-68
2023/01/16 00:11:26;;;;;;;18.58;14.35;;;;;;;;;;10219955;28;20076;-68
2023/01/16 00:16:26;;;;;;;29.90;16.70;;;;;;;;;;10222096;28;20474;-68
2023/01/16 00:21:25;;;;;;;75.45;33.97;;;;;;;;;;10219436;28;20069;-69
2023/01/16 00:26:24;;;;;;;80.85;36.67;;;;;;;;;;10220115;28;20077;-68
2023/01/16 00:31:28;;;;;;;34.03;20.05;;;;;;;;;;10220635;28;20081;-69
2023/01/16 00:36:28;;;;;;;13.02;9.95;;;;;;;;;;10221671;28;20468;-68
2023/01/16 00:41:26;;;;;;;9.77;7.63;;;;;;;;;;10222225;28;20070;-68
2023/01/16 00:46:26;;;;;;;11.60;9.43;;;;;;;;;;10221206;28;20486;-69
2023/01/16 00:51:24;;;;;;;11.23;8.93;;;;;;;;;;10220062;28;20073;-70
2023/01/16 00:56:22;;;;;;;15.70;10.88;;;;;;;;;;10223161;28;20058;-69
2023/01/16 01:01:21;;;;;;;10.05;8.88;;;;;;;;;;10221096;28;20138;-69
2023/01/16 01:06:20;;;;;;;12.70;9.70;;;;;;;;;;10221475;28;20065;-69
2023/01/16 01:11:22;;;;;;;10.38;8.30;;;;;;;;;;10222003;28;20060;-69
2023/01/16 01:16:20;;;;;;;9.20;8.27;;;;;;;;;;10218035;28;20057;-69
2023/01/16 01:21:18;;;;;;;10.30;7.70;;;;;;;;;;10214190;28;20076;-69
2023/01/16 01:26:18;;;;;;;8.88;7.50;;;;;;;;;;10214832;28;20081;-68
2023/01/16 01:31:16;;;;;;;9.27;7.20;;;;;;;;;;10213989;28;20074;-68
2023/01/16 01:36:15;;;;;;;9.13;8.07;;;;;;;;;;10214397;28;20070;-68
2023/01/16 01:41:13;;;;;;;10.45;7.93;;;;;;;;;;10214398;28;20073;-68
2023/01/16 01:46:18;;;;;;;8.35;6.95;;;;;;;;;;10213930;28;20077;-69
2023/01/16 01:51:18;;;;;;;8.57;7.25;;;;;;;;;;10215158;28;20069;-69
2023/01/16 01:56:19;;;;;;;11.88;9.43;;;;;;;;;;10208725;28;20084;-68
2023/01/16 02:01:18;;;;;;;10.57;9.00;;;;;;;;;;10227854;28;20073;-68
2023/01/16 02:06:19;;;;;;;8.90;7.55;;;;;;;;;;10213813;28;20106;-67
2023/01/16 02:11:26;;;;;;;11.70;8.43;;;;;;;;;;10212223;28;20069;-69
2023/01/16 02:22:13;;;;;;;8.40;7.03;;;;;;;;;;10216981;28;20065;-69
2023/01/16 02:27:18;;;;;;;9.98;7.75;;;;;;;;;;10212120;28;20104;-67
2023/01/16 02:32:29;;;;;;;15.68;10.88;;;;;;;;;;10212464;28;20117;-68
2023/01/16 02:37:31;;;;;;;13.13;10.15;;;;;;;;;;10211124;28;20076;-69
2023/01/16 02:42:33;;;;;;;23.38;16.83;;;;;;;;;;10212121;28;20091;-69
2023/01/16 02:47:37;;;;;;;15.60;11.57;;;;;;;;;;10210171;28;20069;-69
2023/01/16 02:52:38;;;;;;;9.93;8.38;;;;;;;;;;10212533;28;20053;-68
2023/01/16 02:57:38;;;;;;;12.90;10.27;;;;;;;;;;10211910;28;20080;-68
2023/01/16 03:02:37;;;;;;;9.48;8.48;;;;;;;;;;10210888;28;20086;-69
2023/01/16 03:07:54;;;;;;;9.07;8.13;;;;;;;;;;10210228;28;20069;-68
2023/01/16 03:12:56;;;;;;;10.02;8.63;;;;;;;;;;10206873;28;20665;-69
2023/01/16 03:18:01;;;;;;;11.88;9.95;;;;;;;;;;10210329;28;20072;-69
2023/01/16 03:23:03;;;;;;;10.98;8.85;;;;;;;;;;10209229;28;20068;-70
2023/01/16 03:28:06;;;;;;;9.68;8.68;;;;;;;;;;10210134;28;20456;-71
2023/01/16 03:33:08;;;;;;;9.88;8.70;;;;;;;;;;10208739;28;20049;-71
2023/01/16 03:38:07;;;;;;;12.48;7.70;;;;;;;;;;10210944;28;20069;-69
2023/01/16 03:43:07;;;;;;;8.65;7.75;;;;;;;;;;10209742;28;20069;-70
2023/01/16 03:48:10;;;;;;;8.82;7.47;;;;;;;;;;10208849;28;20077;-71
2023/01/16 03:53:11;;;;;;;8.70;7.25;;;;;;;;;;10205203;28;20072;-70
2023/01/16 03:58:12;;;;;;;8.43;7.32;;;;;;;;;;10206521;28;20061;-70
2023/01/16 04:03:15;;;;;;;8.40;7.53;;;;;;;;;;10210649;28;20073;-70
2023/01/16 04:08:15;;;;;;;8.75;7.95;;;;;;;;;;10210979;28;20526;-70
2023/01/16 04:13:16;;;;;;;9.43;8.43;;;;;;;;;;10208175;28;20080;-70
2023/01/16 04:18:15;;;;;;;8.60;7.68;;;;;;;;;;10209781;28;20092;-71
2023/01/16 04:23:16;;;;;;;15.15;11.82;;;;;;;;;;10207012;28;20077;-70
2023/01/16 04:28:14;;;;;;;8.80;7.82;;;;;;;;;;10213549;28;20164;-70
2023/01/16 04:33:12;;;;;;;11.25;10.05;;;;;;;;;;10207898;28;20080;-70
2023/01/16 04:38:13;;;;;;;9.55;8.55;;;;;;;;;;10207394;28;20140;-70
2023/01/16 04:43:11;;;;;;;16.80;12.27;;;;;;;;;;10208005;28;20073;-71
2023/01/16 04:48:09;;;;;;;32.45;23.55;;;;;;;;;;10215264;28;20081;-71
2023/01/16 04:53:07;;;;;;;18.48;15.55;;;;;;;;;;10213990;28;20427;-71
2023/01/16 04:58:07;;;;;;;13.18;10.93;;;;;;;;;;10212425;28;20074;-71
2023/01/16 05:03:05;;;;;;;9.57;8.68;;;;;;;;;;10213167;28;20065;-69
2023/01/16 05:08:19;;;;;;;10.18;8.55;;;;;;;;;;10214881;28;20099;-69
2023/01/16 05:13:19;;;;;;;10.10;9.10;;;;;;;;;;10214185;28;20080;-68
2023/01/16 05:18:17;;;;;;;9.35;8.35;;;;;;;;;;10215862;28;20085;-68
2023/01/16 05:23:15;;;;;;;9.77;8.45;;;;;;;;;;10210838;28;20065;-69
2023/01/16 05:28:13;;;;;;;8.60;7.60;;;;;;;;;;10215044;28;20486;-69
2023/01/16 05:33:13;;;;;;;9.18;6.82;;;;;;;;;;10212904;28;20073;-68
2023/01/16 05:38:11;;;;;;;15.57;12.80;;;;;;;;;;10213081;28;20069;-68
2023/01/16 05:43:09;;;;;;;17.70;12.63;;;;;;;;;;10215399;28;20080;-67
2023/01/16 05:48:08;;;;;;;8.50;7.55;;;;;;;;;;10216305;28;20079;-68
2023/01/16 05:53:07;;;;;;;8.40;7.47;;;;;;;;;;10207967;28;20061;-68
2023/01/16 05:58:05;;;;;;;14.73;12.55;;;;;;;;;;10210573;28;20084;-69
2023/01/16 06:03:04;;;;;;;15.18;12.25;;;;;;;;;;10219861;28;20075;-68
2023/01/16 06:08:02;;;;;;;15.82;14.23;;;;;;;;;;10211852;28;20061;-68
2023/01/16 06:13:02;;;;;;;11.05;9.88;;;;;;;;;;10211359;28;20057;-68
2023/01/16 06:18:00;;;;;;;12.25;10.90;;;;;;;;;;10211246;28;20072;-68
2023/01/16 06:23:02;;;;;;;12.95;9.60;;;;;;;;;;10211695;28;20072;-68
2023/01/16 06:28:02;;;;;;;8.35;7.25;;;;;;;;;;10215569;28;20077;-67
2023/01/16 06:33:00;;;;;;;14.48;9.75;;;;;;;;;;10217278;28;20076;-68
2023/01/16 06:37:59;;;;;;;14.30;8.07;;;;;;;;;;10218862;28;20071;-68
2023/01/16 06:42:57;;;;;;;15.55;9.82;;;;;;;;;;10211646;28;20065;-68
2023/01/16 06:47:56;;;;;;;11.30;9.98;;;;;;;;;;10220307;28;20511;-68
2023/01/16 06:52:55;;;;;;;11.73;8.25;;;;;;;;;;10212735;28;20061;-67
2023/01/16 06:57:53;;;;;;;11.95;10.05;;;;;;;;;;10210115;28;20506;-69
2023/01/16 07:02:54;;;;;;;9.27;8.38;;;;;;;;;;10209638;28;20696;-67
2023/01/16 07:07:54;;;;;;;8.55;7.63;;;;;;;;;;10209968;28;20065;-68
2023/01/16 07:12:53;;;;;;;9.80;8.77;;;;;;;;;;10204914;28;20531;-69
2023/01/16 07:23:14;;;;;;;10.48;8.68;;;;;;;;;;10215786;28;20069;-69
2023/01/16 07:28:12;;;;;;;10.82;8.88;;;;;;;;;;10209714;28;20093;-69
2023/01/16 07:33:11;;;;;;;12.52;9.13;;;;;;;;;;10205747;28;20074;-69
2023/01/16 07:38:09;;;;;;;10.80;9.70;;;;;;;;;;10206480;28;20514;-69
2023/01/16 07:43:09;;;;;;;9.20;8.23;;;;;;;;;;10209440;28;20064;-69
2023/01/16 07:48:07;;;;;;;16.90;11.02;;;;;;;;;;10209600;28;20121;-69
2023/01/16 07:53:05;;;;;;;9.77;8.77;;;;;;;;;;10210961;28;20065;-68
2023/01/16 07:58:03;;;;;;;7.88;7.05;;;;;;;;;;10212305;28;20079;-68
2023/01/16 08:03:03;;;;;;;10.27;8.95;;;;;;;;;;10209163;28;20068;-68
2023/01/16 08:08:01;;;;;;;12.18;10.90;;;;;;;;;;10206950;28;20080;-69
2023/01/16 08:13:01;;;;;;;8.68;7.78;;;;;;;;;;10205796;28;20065;-68
2023/01/16 08:18:00;;;;;;;9.90;8.23;;;;;;;;;;10202923;28;20084;-69
2023/01/16 08:23:00;;;;;;;10.43;9.07;;;;;;;;;;10219185;28;20076;-69
2023/01/16 08:27:59;;;;;;;9.10;7.95;;;;;;;;;;10207917;28;20522;-69
2023/01/16 08:33:00;;;;;;;10.23;8.27;;;;;;;;;;10214983;28;20525;-69
2023/01/16 08:38:01;;;;;;;33.85;20.45;;;;;;;;;;10216629;28;20447;-69
2023/01/16 08:53:33;;;;;;;29.52;20.98;;;;;;;;;;10221324;28;20770;-69
2023/01/16 08:58:34;;;;;;;31.08;23.08;;;;;;;;;;10210385;28;20073;-68
2023/01/16 09:03:34;;;;;;;47.10;35.55;;;;;;;;;;10210770;28;20095;-68
2023/01/16 09:08:34;;;;;;;40.05;35.92;;;;;;;;;;10213140;28;20064;-69
2023/01/16 09:13:50;;;;;;;30.13;23.45;;;;;;;;;;10217617;28;20088;-69
2023/01/16 09:18:48;;;;;;;23.83;18.63;;;;;;;;;;10211926;28;20061;-69
2023/01/16 09:23:51;;;;;;;20.45;17.67;;;;;;;;;;10212339;28;20069;-69
2023/01/16 09:28:59;;;;;;;23.42;18.98;;;;;;;;;;10209438;28;20086;-68
2023/01/16 09:33:59;;;;;;;26.92;18.58;;;;;;;;;;10214138;28;20091;-68
2023/01/16 09:39:01;;;;;;;26.83;17.90;;;;;;;;;;10212203;28;20065;-68
2023/01/16 09:44:00;;;;;;;22.95;18.85;;;;;;;;;;10212296;28;20074;-68
2023/01/16 09:49:03;;;;;;;28.10;22.40;;;;;;;;;;10208597;28;20070;-69
2023/01/16 09:59:24;;;;;;;18.92;15.52;;;;;;;;;;10208006;28;20069;-69
2023/01/16 10:04:23;;;;;;;34.05;23.95;;;;;;;;;;10226256;28;20542;-70
2023/01/16 10:09:29;;;;;;;28.40;20.05;;;;;;;;;;10206625;28;20061;-68
2023/01/16 10:14:32;;;;;;;27.17;21.05;;;;;;;;;;10211738;28;20095;-69
2023/01/16 10:19:40;;;;;;;28.25;20.30;;;;;;;;;;10211416;28;20066;-69
2023/01/16 10:24:45;;;;;;;28.35;21.55;;;;;;;;;;10213755;28;20069;-68
2023/01/16 10:29:46;;;;;;;43.30;28.42;;;;;;;;;;10210714;28;20081;-69
2023/01/16 10:34:52;;;;;;;46.22;30.98;;;;;;;;;;10207547;28;20084;-68
2023/01/16 10:39:52;;;;;;;64.40;37.85;;;;;;;;;;10210380;28;20428;-70
2023/01/16 10:50:11;;;;;;;33.60;20.40;;;;;;;;;;10204307;28;20283;-68
2023/01/16 10:55:11;;;;;;;100.40;66.47;;;;;;;;;;10207677;28;20077;-69
2023/01/16 11:00:14;;;;;;;28.25;22.13;;;;;;;;;;10204594;28;20518;-69
2023/01/16 11:05:22;;;;;;;28.77;19.42;;;;;;;;;;10208227;28;20069;-69
2023/01/16 11:10:23;;;;;;;33.28;18.75;;;;;;;;;;10210941;28;20073;-69
2023/01/16 11:20:39;;;;;;;31.90;22.15;;;;;;;;;;10210328;28;20084;-68
2023/01/16 11:25:38;;;;;;;29.17;22.77;;;;;;;;;;10210376;28;20476;-70
2023/01/16 11:30:41;;;;;;;36.85;24.88;;;;;;;;;;10215677;28;20085;-70
2023/01/16 11:35:40;;;;;;;55.40;39.45;;;;;;;;;;10206153;28;20088;-70
2023/01/16 11:40:45;;;;;;;47.30;32.45;;;;;;;;;;10209627;28;20065;-69
2023/01/16 11:46:03;;;;;;;49.47;40.13;;;;;;;;;;10206760;28;20061;-69
2023/01/16 11:51:03;;;;;;;32.72;24.73;;;;;;;;;;10205889;28;20075;-68
2023/01/16 11:56:16;;;;;;;36.22;25.08;;;;;;;;;;10208776;28;20466;-68
2023/01/16 12:01:24;;;;;;;111.75;61.50;;;;;;;;;;10208844;28;20085;-69
2023/01/16 12:06:31;;;;;;;63.23;44.17;;;;;;;;;;10207122;28;20076;-70
2023/01/16 12:11:52;;;;;;;60.92;42.28;;;;;;;;;;10208269;28;20069;-69
2023/01/16 12:16:56;;;;;;;35.83;24.23;;;;;;;;;;10206114;28;20471;-69
2023/01/16 12:21:59;;;;;;;37.88;26.60;;;;;;;;;;10206363;28;20439;-68
2023/01/16 12:27:06;;;;;;;39.85;24.52;;;;;;;;;;10208601;28;20080;-68
2023/01/16 12:32:18;;;;;;;38.95;26.30;;;;;;;;;;10208276;28;20078;-69
2023/01/16 12:37:21;;;;;;;48.92;30.52;;;;;;;;;;10193719;28;20084;-69
2023/01/16 12:47:50;;;;;;;30.40;22.23;;;;;;;;;;10197328;28;20074;-68
2023/01/16 12:52:55;;;;;;;33.78;24.60;;;;;;;;;;10204897;28;20518;-69
2023/01/16 12:58:11;;;;;;;32.50;23.73;;;;;;;;;;10214556;28;20495;-69
2023/01/16 13:03:14;;;;;;;28.90;20.77;;;;;;;;;;10209358;28;20100;-68
2023/01/16 13:08:16;;;;;;;26.13;19.95;;;;;;;;;;10212779;28;20073;-69
2023/01/16 13:13:24;;;;;;;26.83;23.45;;;;;;;;;;10204813;28;20539;-69
2023/01/16 13:18:24;;;;;;;97.65;57.28;;;;;;;;;;10209172;28;20549;-70
2023/01/16 13:23:24;;;;;;;196.25;101.35;;;;;;;;;;10214159;28;20513;-69
2023/01/16 13:28:26;;;;;;;138.80;84.88;;;;;;;;;;10212130;28;20521;-70
2023/01/16 13:33:28;;;;;;;71.10;53.03;;;;;;;;;;10213375;28;20061;-68
2023/01/16 13:38:44;;;;;;;28.33;24.75;;;;;;;;;;10208620;28;20922;-69
2023/01/16 13:49:06;;;;;;;37.42;27.50;;;;;;;;;;10214176;28;20076;-69
2023/01/16 13:54:05;;;;;;;29.75;23.52;;;;;;;;;;10212493;28;20084;-68
2023/01/16 13:59:08;;;;;;;40.90;29.00;;;;;;;;;;10211849;28;20081;-68
2023/01/16 14:04:24;;;;;;;37.05;26.45;;;;;;;;;;10213578;28;20065;-69
2023/01/16 14:09:23;;;;;;;23.50;20.13;;;;;;;;;;10212715;28;20092;-69
2023/01/16 14:19:41;;;;;;;22.05;18.35;;;;;;;;;;10210376;28;20518;-68
2023/01/16 14:24:42;;;;;;;29.10;21.70;;;;;;;;;;10212055;28;20076;-70
2023/01/16 14:29:49;;;;;;;32.88;25.08;;;;;;;;;;10210346;28;20089;-69
2023/01/16 14:34:50;;;;;;;26.60;21.35;;;;;;;;;;10211530;28;20075;-69
2023/01/16 14:39:49;;;;;;;27.13;22.65;;;;;;;;;;10212713;28;20081;-69
2023/01/16 14:56:01;;;;;;;41.13;30.40;;;;;;;;;;10212165;28;20073;-69
2023/01/16 15:06:31;;;;;;;45.13;31.15;;;;;;;;;;10210430;28;20077;-69
2023/01/16 15:11:33;;;;;;;38.80;31.67;;;;;;;;;;10212543;28;20076;-68
2023/01/16 15:21:58;;;;;;;44.45;33.58;;;;;;;;;;10209871;28;20065;-69
2023/01/16 15:27:08;;;;;;;69.88;49.28;;;;;;;;;;10209047;28;20577;-68
2023/01/16 15:32:16;;;;;;;63.15;43.60;;;;;;;;;;10209703;28;20073;-68
2023/01/16 15:37:22;;;;;;;36.83;28.17;;;;;;;;;;10210708;28;20070;-68
2023/01/16 15:47:50;;;;;;;39.72;32.95;;;;;;;;;;10208290;28;20535;-69
2023/01/16 15:52:50;;;;;;;49.10;40.28;;;;;;;;;;10209964;28;20080;-67
2023/01/16 15:57:51;;;;;;;54.08;43.17;;;;;;;;;;10205577;28;20474;-67
2023/01/16 16:02:51;;;;;;;58.58;45.50;;;;;;;;;;10209277;28;20088;-68
2023/01/16 16:07:49;;;;;;;57.33;45.40;;;;;;;;;;10208430;28;21011;-67
2023/01/16 16:12:47;;;;;;;60.53;47.53;;;;;;;;;;10208495;28;20069;-67
2023/01/16 16:18:00;;;;;;;74.25;61.67;;;;;;;;;;10208149;28;20065;-68
2023/01/16 16:23:01;;;;;;;87.32;68.07;;;;;;;;;;10210013;28;20073;-68
2023/01/16 16:27:59;;;;;;;65.88;54.08;;;;;;;;;;10209038;28;20157;-68
2023/01/16 16:32:58;;;;;;;58.30;48.03;;;;;;;;;;10208728;28;20069;-68
2023/01/16 16:37:56;;;;;;;53.72;45.70;;;;;;;;;;10207991;28;20065;-68
2023/01/16 16:42:57;;;;;;;54.97;44.90;;;;;;;;;;10208277;28;20489;-67
2023/01/16 16:48:20;;;;;;;86.13;65.70;;;;;;;;;;10209336;28;20160;-69
2023/01/16 16:53:23;;;;;;;90.30;68.40;;;;;;;;;;10212711;28;20612;-68
2023/01/16 16:58:23;;;;;;;62.13;49.20;;;;;;;;;;10215447;28;20069;-69
2023/01/16 17:03:22;;;;;;;54.95;41.58;;;;;;;;;;10215741;28;20080;-68
2023/01/16 17:08:22;;;;;;;27.77;23.00;;;;;;;;;;10212239;28;20078;-67
2023/01/16 17:13:21;;;;;;;21.98;17.35;;;;;;;;;;10212902;28;20073;-68
2023/01/16 17:18:23;;;;;;;40.13;29.70;;;;;;;;;;10215088;28;20050;-68
2023/01/16 17:23:22;;;;;;;17.40;12.82;;;;;;;;;;10214702;28;20080;-69
2023/01/16 17:28:20;;;;;;;15.50;14.00;;;;;;;;;;10214777;28;20093;-69
2023/01/16 17:33:19;;;;;;;23.50;19.55;;;;;;;;;;10212796;28;20096;-68
2023/01/16 17:38:22;;;;;;;32.67;23.13;;;;;;;;;;10215572;28;20089;-68
2023/01/16 17:48:37;;;;;;;27.73;20.25;;;;;;;;;;10212417;28;20519;-67
2023/01/16 17:53:37;;;;;;;31.73;22.48;;;;;;;;;;10213860;28;20069;-68
2023/01/16 17:58:48;;;;;;;19.85;15.38;;;;;;;;;;10211150;28;20080;-68
2023/01/16 18:03:49;;;;;;;25.13;19.13;;;;;;;;;;10214151;28;20470;-68
2023/01/16 18:08:49;;;;;;;15.07;13.32;;;;;;;;;;10213042;28;20168;-68
2023/01/16 18:19:07;;;;;;;31.92;21.92;;;;;;;;;;10212997;28;20114;-68
2023/01/16 18:24:07;;;;;;;26.35;20.45;;;;;;;;;;10212756;28;20069;-68
2023/01/16 18:29:05;;;;;;;19.50;15.40;;;;;;;;;;10211607;28;20497;-69
2023/01/16 18:34:03;;;;;;;15.43;13.02;;;;;;;;;;10212132;28;20073;-68
2023/01/16 19:05:33;;;;;;;23.85;19.92;;;;;;;;;;10213136;28;20077;-69
2023/01/16 19:10:32;;;;;;;66.50;48.20;;;;;;;;;;10212729;28;20084;-69
2023/01/16 19:15:34;;;;;;;52.47;39.53;;;;;;;;;;10210081;28;20065;-68
2023/01/16 19:20:33;;;;;;;53.90;40.42;;;;;;;;;;10209665;28;20546;-69
2023/01/16 19:25:31;;;;;;;54.45;38.92;;;;;;;;;;10211034;28;20065;-69
2023/01/16 19:30:29;;;;;;;42.83;34.13;;;;;;;;;;10215706;28;20169;-71
2023/01/16 19:35:29;;;;;;;43.70;31.90;;;;;;;;;;10207657;28;20072;-69
2023/01/16 19:40:27;;;;;;;43.65;30.77;;;;;;;;;;10210161;28;20068;-67
2023/01/16 19:50:48;;;;;;;70.38;42.22;;;;;;;;;;10200612;28;20092;-68
2023/01/16 19:55:46;;;;;;;35.47;24.45;;;;;;;;;;10209685;28;20451;-69
2023/01/16 20:00:45;;;;;;;45.92;32.63;;;;;;;;;;10208794;28;20077;-68
2023/01/16 20:06:00;;;;;;;31.67;23.27;;;;;;;;;;10208729;28;20466;-68
2023/01/16 20:10:58;;;;;;;38.53;28.23;;;;;;;;;;10210296;28;20616;-68
2023/01/16 20:16:01;;;;;;;46.10;37.28;;;;;;;;;;10210180;28;20084;-67
2023/01/16 20:21:06;;;;;;;20.02;15.38;;;;;;;;;;10206681;28;20070;-69
2023/01/16 20:26:04;;;;;;;;;;;;;;;;;;10215146;28;20598;-70
2023/01/16 20:31:03;;;;;;;13.50;9.70;;;;;;;;;;10216484;28;19957;-68
2023/01/16 20:36:03;;;;;;;13.85;10.50;;;;;;;;;;10215881;28;20479;-69
2023/01/16 20:41:06;;;;;;;26.90;19.77;;;;;;;;;;10215811;28;20427;-69
2023/01/16 20:46:04;;;;;;;13.23;10.27;;;;;;;;;;10215003;28;20061;-68
2023/01/16 20:51:03;;;;;;;13.82;10.23;;;;;;;;;;10216578;28;20076;-68
2023/01/16 20:56:03;;;;;;;11.50;9.57;;;;;;;;;;10210674;28;20076;-68
2023/01/16 21:01:04;;;;;;;11.23;9.35;;;;;;;;;;10216893;28;20081;-68
2023/01/16 21:06:04;;;;;;;11.63;10.07;;;;;;;;;;10220612;28;20076;-68
2023/01/16 21:14:09;;;;;;;12.95;11.13;;;;;;;;;;10217969;28;20519;-68
2023/01/16 21:21:49;;;;;;;65.60;46.65;;;;;;;;;;10215303;28;20065;-69
2023/01/16 21:26:48;;;;;;;60.53;42.78;;;;;;;;;;10212009;28;20089;-68
2023/01/16 21:31:48;;;;;;;67.40;43.25;;;;;;;;;;10211889;28;20493;-69
2023/01/16 21:36:49;;;;;;;76.10;50.80;;;;;;;;;;10209285;28;20062;-68
2023/01/16 21:47:03;;;;;;;41.57;31.97;;;;;;;;;;10205341;28;20084;-68
2023/01/16 21:52:01;;;;;;;55.33;38.90;;;;;;;;;;10206379;28;20070;-68
2023/01/16 21:56:59;;;;;;;50.28;37.50;;;;;;;;;;10205238;28;20104;-69
2023/01/16 22:02:00;;;;;;;55.60;39.90;;;;;;;;;;10209160;28;20497;-69
2023/01/16 22:07:00;;;;;;;28.13;23.85;;;;;;;;;;10211817;28;20507;-69
2023/01/16 22:22:32;;;;;;;105.45;56.67;;;;;;;;;;10211190;28;20069;-68
2023/01/16 22:27:30;;;;;;;100.00;66.22;;;;;;;;;;10213357;28;20092;-69
2023/01/16 22:32:28;;;;;;;67.45;48.95;;;;;;;;;;10208018;28;20073;-69
2023/01/16 22:37:27;;;;;;;64.72;45.22;;;;;;;;;;10210859;28;20439;-69
2023/01/16 22:42:26;;;;;;;51.25;37.08;;;;;;;;;;10213005;28;20065;-69
2023/01/16 22:47:26;;;;;;;48.28;32.90;;;;;;;;;;10210446;28;20080;-69
2023/01/16 22:52:24;;;;;;;37.10;26.42;;;;;;;;;;10210485;28;20080;-69
2023/01/16 22:57:26;;;;;;;71.95;47.53;;;;;;;;;;10208600;28;20069;-69
2023/01/16 23:02:25;;;;;;;40.72;31.05;;;;;;;;;;10211276;28;20069;-69
2023/01/16 23:07:23;;;;;;;45.40;32.10;;;;;;;;;;10211626;28;20072;-69
2023/01/16 23:12:21;;;;;;;22.92;18.10;;;;;;;;;;10210664;28;20096;-68
2023/01/16 23:17:21;;;;;;;30.30;21.45;;;;;;;;;;10211364;28;20069;-68
2023/01/16 23:22:19;;;;;;;48.75;35.13;;;;;;;;;;10209907;28;20096;-68
2023/01/16 23:27:17;;;;;;;12.05;9.20;;;;;;;;;;10207989;28;20080;-68
2023/01/16 23:32:15;;;;;;;23.67;17.83;;;;;;;;;;10210935;28;20080;-68
2023/01/16 23:37:15;;;;;;;13.60;11.65;;;;;;;;;;10209302;28;20093;-67
2023/01/16 23:47:29;;;;;;;19.95;16.02;;;;;;;;;;10211819;28;20076;-68
2023/01/16 23:52:29;;;;;;;27.73;22.05;;;;;;;;;;10209727;28;20073;-68
2023/01/16 23:57:28;;;;;;;11.90;10.52;;;;;;;;;;10209041;28;20065;-68
